createdAt,value
2017-07-20T00:02:23.392Z,18.10
2017-07-20T00:04:50.844Z,18.10
2017-07-20T00:07:18.294Z,18.10
2017-07-20T00:09:45.941Z,18.10
2017-07-20T00:12:13.385Z,18.10
2017-07-20T00:14:40.831Z,18.10
2017-07-20T00:17:08.300Z,18.10
2017-07-20T00:19:35.758Z,18.10
2017-07-20T00:22:03.205Z,18.00
2017-07-20T00:24:30.900Z,18.00
2017-07-20T00:26:58.357Z,18.00
2017-07-20T00:29:25.806Z,18.10
2017-07-20T00:31:53.544Z,18.00
2017-07-20T00:34:20.984Z,18.00
2017-07-20T00:36:48.436Z,18.00
2017-07-20T00:39:15.902Z,18.00
2017-07-20T00:41:43.345Z,18.00
2017-07-20T00:44:10.798Z,18.00
2017-07-20T00:46:38.287Z,18.00
2017-07-20T00:49:05.750Z,17.90
2017-07-20T00:51:33.200Z,18.00
2017-07-20T00:54:00.876Z,18.00
2017-07-20T00:56:28.340Z,17.90
2017-07-20T00:58:55.792Z,17.90
2017-07-20T01:01:23.272Z,17.90
2017-07-20T01:03:50.715Z,17.90
2017-07-20T01:06:18.566Z,17.90
2017-07-20T01:08:46.037Z,17.80
2017-07-20T01:11:13.876Z,17.80
2017-07-20T01:13:41.320Z,17.80
2017-07-20T01:16:08.792Z,17.80
2017-07-20T01:18:36.235Z,17.80
2017-07-20T01:21:03.683Z,17.80
2017-07-20T01:23:31.151Z,17.80
2017-07-20T01:25:58.603Z,17.80
2017-07-20T01:28:26.049Z,17.80
2017-07-20T01:30:54.332Z,17.90
2017-07-20T01:33:21.776Z,17.90
2017-07-20T01:35:49.220Z,17.90
2017-07-20T01:38:16.963Z,17.90
2017-07-20T01:40:44.408Z,17.90
2017-07-20T01:43:11.855Z,17.90
2017-07-20T01:45:39.421Z,17.90
2017-07-20T01:48:06.864Z,17.90
2017-07-20T01:50:34.313Z,17.90
2017-07-20T01:53:02.183Z,18.00
2017-07-20T01:55:30.026Z,18.00
2017-07-20T01:57:57.464Z,18.00
2017-07-20T02:00:24.936Z,17.90
2017-07-20T02:02:52.377Z,17.90
2017-07-20T02:05:19.828Z,17.90
2017-07-20T02:07:47.304Z,17.90
2017-07-20T02:10:14.749Z,17.80
2017-07-20T02:12:42.192Z,17.90
2017-07-20T02:15:09.676Z,17.90
2017-07-20T02:17:37.121Z,18.00
2017-07-20T02:20:05.379Z,17.90
2017-07-20T02:22:32.874Z,17.90
2017-07-20T02:25:00.722Z,17.90
2017-07-20T02:27:28.183Z,17.90
2017-07-20T02:29:56.068Z,17.90
2017-07-20T02:32:23.539Z,17.90
2017-07-20T02:34:51.002Z,18.00
2017-07-20T02:37:18.493Z,17.90
2017-07-20T02:39:45.975Z,18.00
2017-07-20T02:42:13.426Z,18.10
2017-07-20T02:44:41.184Z,18.10
2017-07-20T02:47:09.053Z,18.00
2017-07-20T02:49:36.911Z,17.90
2017-07-20T02:52:04.778Z,18.00
2017-07-20T02:54:32.236Z,17.90
2017-07-20T02:56:59.711Z,17.90
2017-07-20T02:59:27.854Z,18.00
2017-07-20T03:01:55.319Z,18.00
2017-07-20T03:04:22.785Z,18.00
2017-07-20T03:06:50.272Z,17.90
2017-07-20T03:09:17.741Z,18.00
2017-07-20T03:11:45.188Z,18.00
2017-07-20T03:14:12.684Z,18.00
2017-07-20T03:16:40.152Z,17.90
2017-07-20T03:19:07.611Z,17.90
2017-07-20T03:21:35.503Z,18.00
2017-07-20T03:24:02.964Z,18.00
2017-07-20T03:26:30.421Z,17.90
2017-07-20T03:28:58.079Z,18.00
2017-07-20T03:31:25.532Z,17.80
2017-07-20T03:33:52.991Z,17.80
2017-07-20T03:36:20.516Z,17.80
2017-07-20T03:38:49.215Z,17.90
2017-07-20T03:41:16.680Z,17.90
2017-07-20T03:43:44.248Z,17.80
2017-07-20T03:46:11.711Z,17.70
2017-07-20T03:48:39.176Z,17.80
2017-07-20T03:51:06.669Z,17.80
2017-07-20T03:53:34.530Z,17.80
2017-07-20T03:56:01.996Z,17.80
2017-07-20T03:58:29.486Z,17.80
2017-07-20T04:00:56.968Z,17.80
2017-07-20T04:03:24.423Z,17.80
2017-07-20T04:05:51.991Z,17.80
2017-07-20T04:08:19.446Z,17.80
2017-07-20T04:10:46.937Z,17.80
2017-07-20T04:13:14.444Z,17.90
2017-07-20T04:15:41.899Z,17.90
2017-07-20T04:18:09.359Z,17.80
2017-07-20T04:20:36.847Z,17.80
2017-07-20T04:23:04.307Z,17.80
2017-07-20T04:25:32.175Z,17.80
2017-07-20T04:28:00.062Z,17.80
2017-07-20T04:30:27.530Z,17.80
2017-07-20T04:32:55.098Z,18.00
2017-07-20T04:35:22.567Z,18.00
2017-07-20T04:37:50.027Z,18.10
2017-07-20T04:40:17.490Z,18.10
2017-07-20T04:42:45.128Z,18.10
2017-07-20T04:45:12.583Z,18.10
2017-07-20T04:47:40.050Z,18.20
2017-07-20T04:50:07.547Z,18.30
2017-07-20T04:52:35.417Z,18.20
2017-07-20T04:55:03.271Z,18.20
2017-07-20T04:57:31.244Z,18.30
2017-07-20T04:59:58.710Z,18.30
2017-07-20T05:02:26.179Z,18.30
2017-07-20T05:04:53.667Z,18.30
2017-07-20T05:07:21.131Z,18.10
2017-07-20T05:09:48.591Z,18.10
2017-07-20T05:12:16.335Z,18.10
2017-07-20T05:14:43.798Z,18.20
2017-07-20T05:17:11.259Z,18.30
2017-07-20T05:19:38.749Z,18.40
2017-07-20T05:22:06.214Z,18.30
2017-07-20T05:24:33.687Z,18.30
2017-07-20T05:27:01.171Z,18.40
2017-07-20T05:29:28.631Z,18.30
2017-07-20T05:31:56.123Z,18.40
2017-07-20T05:34:24.271Z,18.40
2017-07-20T05:36:51.728Z,18.40
2017-07-20T05:39:19.187Z,18.50
2017-07-20T05:41:46.819Z,18.50
2017-07-20T05:44:14.464Z,18.60
2017-07-20T05:46:41.930Z,18.70
2017-07-20T05:49:09.407Z,18.60
2017-07-20T05:51:36.867Z,18.70
2017-07-20T05:54:04.334Z,18.80
2017-07-20T05:56:31.835Z,18.80
2017-07-20T05:58:59.291Z,19.00
2017-07-20T06:01:26.760Z,19.00
2017-07-20T06:03:54.607Z,18.90
2017-07-20T06:06:22.072Z,19.00
2017-07-20T06:08:49.530Z,19.10
2017-07-20T06:11:17.234Z,18.90
2017-07-20T06:13:44.691Z,18.90
2017-07-20T06:16:12.155Z,18.90
2017-07-20T06:18:39.650Z,19.10
2017-07-20T06:21:07.123Z,19.20
2017-07-20T06:23:34.591Z,19.40
2017-07-20T06:26:02.059Z,19.40
2017-07-20T06:28:29.522Z,19.30
2017-07-20T06:30:56.988Z,19.10
2017-07-20T06:33:24.496Z,19.50
2017-07-20T06:35:51.967Z,19.60
2017-07-20T06:38:19.423Z,19.60
2017-07-20T06:40:47.106Z,19.80
2017-07-20T06:43:14.571Z,19.40
2017-07-20T06:45:42.073Z,19.40
2017-07-20T06:48:09.574Z,19.40
2017-07-20T06:50:37.035Z,19.60
2017-07-20T06:53:04.488Z,19.80
2017-07-20T06:55:32.250Z,19.80
2017-07-20T06:57:59.708Z,19.90
2017-07-20T07:00:27.575Z,20.10
2017-07-20T07:02:55.644Z,20.10
2017-07-20T07:05:23.099Z,20.30
2017-07-20T07:07:50.967Z,20.30
2017-07-20T07:10:18.463Z,20.30
2017-07-20T07:12:45.926Z,20.40
2017-07-20T07:15:13.392Z,20.50
2017-07-20T07:17:40.911Z,20.30
2017-07-20T07:20:08.381Z,20.60
2017-07-20T07:22:35.840Z,20.20
2017-07-20T07:25:03.348Z,20.10
2017-07-20T07:27:31.838Z,20.70
2017-07-20T07:29:59.700Z,20.60
2017-07-20T07:32:27.202Z,20.60
2017-07-20T07:34:54.667Z,20.40
2017-07-20T07:37:22.126Z,20.80
2017-07-20T07:39:49.608Z,20.30
2017-07-20T07:42:17.068Z,20.60
2017-07-20T07:44:44.532Z,20.60
2017-07-20T07:47:12.034Z,21.10
2017-07-20T07:49:39.503Z,21.10
2017-07-20T07:52:06.962Z,20.90
2017-07-20T07:54:34.751Z,20.80
2017-07-20T07:57:02.221Z,21.00
2017-07-20T07:59:30.082Z,21.20
2017-07-20T08:01:57.979Z,21.20
2017-07-20T08:04:25.435Z,21.10
2017-07-20T08:06:52.900Z,21.20
2017-07-20T08:09:20.616Z,21.20
2017-07-20T08:11:48.479Z,21.30
2017-07-20T08:14:15.950Z,21.30
2017-07-20T08:16:43.849Z,21.20
2017-07-20T08:19:11.411Z,21.20
2017-07-20T08:21:38.867Z,21.20
2017-07-20T08:24:06.576Z,21.00
2017-07-20T08:26:34.442Z,20.70
2017-07-20T08:29:01.895Z,20.80
2017-07-20T08:31:29.482Z,20.60
2017-07-20T08:33:56.943Z,20.60
2017-07-20T08:36:24.395Z,20.50
2017-07-20T08:38:51.871Z,20.60
2017-07-20T08:41:19.336Z,20.60
2017-07-20T08:43:46.791Z,20.70
2017-07-20T08:46:14.592Z,20.70
2017-07-20T08:48:42.095Z,20.50
2017-07-20T08:51:09.554Z,20.70
2017-07-20T08:53:37.374Z,20.70
2017-07-20T08:56:05.244Z,20.90
2017-07-20T08:58:33.114Z,20.80
2017-07-20T09:01:01.003Z,20.60
2017-07-20T09:03:28.471Z,20.60
2017-07-20T09:05:55.943Z,20.50
2017-07-20T09:08:23.635Z,20.50
2017-07-20T09:10:51.090Z,20.40
2017-07-20T09:13:18.954Z,20.50
2017-07-20T09:15:46.708Z,20.60
2017-07-20T09:18:14.162Z,20.60
2017-07-20T09:20:41.623Z,20.70
2017-07-20T09:23:09.383Z,20.60
2017-07-20T09:25:36.851Z,20.60
2017-07-20T09:28:04.302Z,20.50
2017-07-20T09:30:32.203Z,20.80
2017-07-20T09:32:59.679Z,20.80
2017-07-20T09:35:27.139Z,20.70
2017-07-20T09:37:54.937Z,20.60
2017-07-20T09:40:22.391Z,20.60
2017-07-20T09:42:49.847Z,20.80
2017-07-20T09:45:33.377Z,20.80
2017-07-20T09:48:00.834Z,20.70
2017-07-20T09:50:28.467Z,20.80
2017-07-20T09:52:55.961Z,20.80
2017-07-20T09:55:23.833Z,21.20
2017-07-20T09:57:51.678Z,21.10
2017-07-20T10:00:19.436Z,21.10
2017-07-20T10:02:46.902Z,21.00
2017-07-20T10:05:14.762Z,21.20
2017-07-20T10:07:42.279Z,21.20
2017-07-20T10:10:09.743Z,21.00
2017-07-20T10:12:37.207Z,21.10
2017-07-20T10:15:04.986Z,21.20
2017-07-20T10:17:32.442Z,20.90
2017-07-20T10:20:00.307Z,20.90
2017-07-20T10:22:27.803Z,20.80
2017-07-20T10:24:55.277Z,20.80
2017-07-20T10:27:23.965Z,20.80
2017-07-20T10:29:51.463Z,20.90
2017-07-20T10:32:18.930Z,21.00
2017-07-20T10:34:46.789Z,20.80
2017-07-20T10:37:14.289Z,20.80
2017-07-20T10:39:41.755Z,21.00
2017-07-20T10:42:09.223Z,21.20
2017-07-20T10:44:37.110Z,21.30
2017-07-20T10:47:04.579Z,21.50
2017-07-20T10:49:32.437Z,21.60
2017-07-20T10:51:59.999Z,21.60
2017-07-20T10:54:27.854Z,21.80
2017-07-20T10:56:55.310Z,21.80
2017-07-20T10:59:22.807Z,21.80
2017-07-20T11:01:50.270Z,22.10
2017-07-20T11:04:17.735Z,22.20
2017-07-20T11:06:45.435Z,22.00
2017-07-20T11:09:13.303Z,21.70
2017-07-20T11:11:40.767Z,21.70
2017-07-20T11:14:08.661Z,21.90
2017-07-20T11:16:36.126Z,21.90
2017-07-20T11:19:03.591Z,21.80
2017-07-20T11:21:31.398Z,21.80
2017-07-20T11:23:58.851Z,21.70
2017-07-20T11:26:26.316Z,21.80
2017-07-20T11:28:54.216Z,22.10
2017-07-20T11:31:21.680Z,22.10
2017-07-20T11:33:49.139Z,22.20
2017-07-20T11:36:16.621Z,22.50
2017-07-20T11:38:44.079Z,22.70
2017-07-20T11:41:11.543Z,22.90
2017-07-20T11:43:39.030Z,22.90
2017-07-20T11:46:06.490Z,22.70
2017-07-20T11:48:33.951Z,22.80
2017-07-20T11:51:01.559Z,23.00
2017-07-20T11:53:29.168Z,23.40
2017-07-20T11:55:56.633Z,22.90
2017-07-20T11:58:24.144Z,22.80
2017-07-20T12:00:51.603Z,22.60
2017-07-20T12:03:19.467Z,22.50
2017-07-20T12:05:46.966Z,22.50
2017-07-20T12:08:14.427Z,22.60
2017-07-20T12:10:41.887Z,22.50
2017-07-20T12:13:09.386Z,22.50
2017-07-20T12:18:11.458Z,22.70
2017-07-20T12:20:38.931Z,22.70
2017-07-20T12:23:06.798Z,23.80
2017-07-20T12:25:34.687Z,24.80
2017-07-20T12:28:02.157Z,24.80
2017-07-20T12:30:29.614Z,25.40
2017-07-20T12:32:57.109Z,25.50
2017-07-20T12:35:24.566Z,25.10
2017-07-20T12:37:52.041Z,24.50
2017-07-20T12:40:19.535Z,23.70
2017-07-20T12:42:47.006Z,23.30
2017-07-20T12:45:14.471Z,22.90
2017-07-20T12:47:42.251Z,22.90
2017-07-20T12:50:09.714Z,23.00
2017-07-20T12:52:37.593Z,22.70
2017-07-20T12:55:05.106Z,22.70
2017-07-20T12:57:32.566Z,22.70
2017-07-20T13:00:00.026Z,22.70
2017-07-20T13:02:27.515Z,22.70
2017-07-20T13:04:55.371Z,22.70
2017-07-20T13:07:23.237Z,22.70
2017-07-20T13:09:50.748Z,22.70
2017-07-20T13:12:18.218Z,22.60
2017-07-20T13:14:45.679Z,22.50
2017-07-20T13:17:13.351Z,22.50
2017-07-20T13:19:40.818Z,22.40
2017-07-20T13:22:08.683Z,22.50
2017-07-20T13:24:36.654Z,22.60
2017-07-20T13:27:04.513Z,22.80
2017-07-20T13:29:32.376Z,22.80
2017-07-20T13:32:00.123Z,22.80
2017-07-20T13:34:27.593Z,22.90
2017-07-20T13:36:55.459Z,23.20
2017-07-20T13:39:23.722Z,23.40
2017-07-20T13:41:51.187Z,23.40
2017-07-20T13:44:18.733Z,23.40
2017-07-20T13:46:46.615Z,23.00
2017-07-20T13:49:14.484Z,23.10
2017-07-20T13:51:42.355Z,23.30
2017-07-20T13:54:10.240Z,23.30
2017-07-20T13:56:37.701Z,23.30
2017-07-20T13:59:05.161Z,23.30
2017-07-20T14:01:32.905Z,23.60
2017-07-20T14:04:00.366Z,23.60
2017-07-20T14:06:27.837Z,24.30
2017-07-20T14:08:55.331Z,23.80
2017-07-20T14:11:22.803Z,23.50
2017-07-20T14:13:50.804Z,23.60
2017-07-20T14:16:18.283Z,23.60
2017-07-20T14:18:45.738Z,23.50
2017-07-20T14:21:13.199Z,23.30
2017-07-20T14:23:40.687Z,23.10
2017-07-20T14:26:08.146Z,22.90
2017-07-20T14:28:36.003Z,22.70
2017-07-20T14:31:03.510Z,22.80
2017-07-20T14:33:30.992Z,22.70
2017-07-20T14:35:58.461Z,22.80
2017-07-20T14:38:26.043Z,22.80
2017-07-20T14:40:53.899Z,23.00
2017-07-20T14:43:21.755Z,23.10
2017-07-20T14:45:49.266Z,23.10
2017-07-20T14:48:16.722Z,23.30
2017-07-20T14:50:44.187Z,23.60
2017-07-20T14:53:11.875Z,23.90
2017-07-20T14:55:39.335Z,24.00
2017-07-20T14:58:06.790Z,24.10
2017-07-20T15:00:34.292Z,24.00
2017-07-20T15:03:01.747Z,23.70
2017-07-20T15:05:29.221Z,23.60
2017-07-20T15:07:57.027Z,23.70
2017-07-20T15:10:24.479Z,23.60
2017-07-20T15:12:51.940Z,23.20
2017-07-20T15:15:20.216Z,23.00
2017-07-20T15:17:48.080Z,23.00
2017-07-20T15:20:15.940Z,23.00
2017-07-20T15:22:43.427Z,23.00
2017-07-20T15:25:10.887Z,23.00
2017-07-20T15:27:38.347Z,22.90
2017-07-20T15:30:05.818Z,22.70
2017-07-20T15:32:33.278Z,22.50
2017-07-20T15:35:00.743Z,22.50
2017-07-20T15:37:28.444Z,22.50
2017-07-20T15:39:56.313Z,22.70
2017-07-20T15:42:24.168Z,23.10
2017-07-20T15:44:52.047Z,23.30
2017-07-20T15:47:19.898Z,23.50
2017-07-20T15:49:47.758Z,23.70
2017-07-20T15:52:15.646Z,23.80
2017-07-20T15:54:43.111Z,23.80
2017-07-20T15:57:10.770Z,23.90
2017-07-20T15:59:38.283Z,23.90
2017-07-20T16:02:05.743Z,24.10
2017-07-20T16:04:33.210Z,24.30
2017-07-20T16:07:00.717Z,24.30
2017-07-20T16:09:28.197Z,24.20
2017-07-20T16:11:55.657Z,23.80
2017-07-20T16:14:23.160Z,23.50
2017-07-20T16:16:50.615Z,23.50
2017-07-20T16:19:18.081Z,23.30
2017-07-20T16:21:45.573Z,23.30
2017-07-20T16:24:13.031Z,23.40
2017-07-20T16:26:40.504Z,23.40
2017-07-20T16:29:08.243Z,23.50
2017-07-20T16:31:35.707Z,23.60
2017-07-20T16:34:03.160Z,23.50
2017-07-20T16:36:30.846Z,23.50
2017-07-20T16:38:58.694Z,23.50
2017-07-20T16:41:26.155Z,23.50
2017-07-20T16:43:54.014Z,23.40
2017-07-20T16:46:21.472Z,23.50
2017-07-20T16:48:48.930Z,23.40
2017-07-20T16:51:16.687Z,23.50
2017-07-20T16:53:44.150Z,23.50
2017-07-20T16:56:12.021Z,23.50
2017-07-20T16:58:39.991Z,23.60
2017-07-20T17:01:07.847Z,23.50
2017-07-20T17:03:35.702Z,23.40
2017-07-20T17:06:03.199Z,23.40
2017-07-20T17:08:30.660Z,23.20
2017-07-20T17:10:58.131Z,23.10
2017-07-20T17:13:25.626Z,23.10
2017-07-20T17:15:53.096Z,23.10
2017-07-20T17:18:20.950Z,23.00
2017-07-20T17:20:48.427Z,23.00
2017-07-20T17:23:16.284Z,23.10
2017-07-20T17:25:44.145Z,23.00
2017-07-20T17:28:12.051Z,23.00
2017-07-20T17:30:39.539Z,23.00
2017-07-20T17:33:07.007Z,23.00
2017-07-20T17:35:34.772Z,22.90
2017-07-20T17:38:02.234Z,22.90
2017-07-20T17:40:29.687Z,22.80
2017-07-20T17:42:58.159Z,22.80
2017-07-20T17:45:25.640Z,22.80
2017-07-20T17:47:53.495Z,22.70
2017-07-20T17:50:21.484Z,22.70
2017-07-20T17:52:48.956Z,22.70
2017-07-20T17:55:16.411Z,22.60
2017-07-20T17:57:44.129Z,22.60
2017-07-20T18:00:11.587Z,22.50
2017-07-20T18:02:39.446Z,22.50
2017-07-20T18:05:06.954Z,22.60
2017-07-20T18:07:34.419Z,22.60
2017-07-20T18:10:01.885Z,22.50
2017-07-20T18:12:29.573Z,22.50
2017-07-20T18:14:57.040Z,22.50
2017-07-20T18:17:24.908Z,22.50
2017-07-20T18:19:53.331Z,22.60
2017-07-20T18:22:20.802Z,22.60
2017-07-20T18:24:48.660Z,22.70
2017-07-20T18:27:16.764Z,22.70
2017-07-20T18:29:44.628Z,22.70
2017-07-20T18:32:12.279Z,22.70
2017-07-20T18:34:39.744Z,22.70
2017-07-20T18:37:07.911Z,22.60
2017-07-20T18:39:35.783Z,22.60
2017-07-20T18:42:03.648Z,22.60
2017-07-20T18:44:31.535Z,22.60
2017-07-20T18:46:59.003Z,22.60
2017-07-20T18:49:26.475Z,22.60
2017-07-20T18:51:53.980Z,22.50
2017-07-20T18:54:21.844Z,22.50
2017-07-20T18:56:49.712Z,22.40
2017-07-20T18:59:17.590Z,22.40
2017-07-20T19:01:45.048Z,22.40
2017-07-20T19:04:12.538Z,22.40
2017-07-20T19:06:40.102Z,22.40
2017-07-20T19:09:07.619Z,22.30
2017-07-20T19:11:35.468Z,22.20
2017-07-20T19:14:03.396Z,22.20
2017-07-20T19:16:30.904Z,22.20
2017-07-20T19:18:58.412Z,22.20
2017-07-20T19:21:26.124Z,22.10
2017-07-20T19:23:53.618Z,22.10
2017-07-20T19:26:21.085Z,22.10
2017-07-20T19:28:48.582Z,22.00
2017-07-20T19:31:16.768Z,22.00
2017-07-20T19:33:44.239Z,22.00
2017-07-20T19:36:11.706Z,21.90
2017-07-20T19:38:39.257Z,21.90
2017-07-20T19:41:06.773Z,21.80
2017-07-20T19:43:34.665Z,21.80
2017-07-20T19:46:02.279Z,21.80
2017-07-20T19:48:30.151Z,21.80
2017-07-20T19:50:57.612Z,21.80
2017-07-20T19:53:25.677Z,21.80
2017-07-20T19:55:53.131Z,21.80
2017-07-20T19:58:20.999Z,21.70
2017-07-20T20:00:49.045Z,21.60
2017-07-20T20:03:16.535Z,21.60
2017-07-20T20:05:44.035Z,21.60
2017-07-20T20:08:11.548Z,21.60
2017-07-20T20:10:39.401Z,21.60
2017-07-20T20:13:06.873Z,21.70
2017-07-20T20:15:34.999Z,21.70
2017-07-20T20:18:02.474Z,21.70
2017-07-20T20:20:29.939Z,21.70
2017-07-20T20:22:57.712Z,21.60
2017-07-20T20:25:25.171Z,21.40
2017-07-20T20:27:53.023Z,21.30
2017-07-20T20:30:20.526Z,21.30
2017-07-20T20:32:47.987Z,20.70
2017-07-20T20:35:15.441Z,20.20
2017-07-20T20:37:43.019Z,20.10
2017-07-20T20:40:10.490Z,20.00
2017-07-20T20:42:38.351Z,20.00
2017-07-20T20:45:05.832Z,19.90
2017-07-20T20:47:33.288Z,19.70
2017-07-20T20:50:01.140Z,19.50
2017-07-20T20:52:28.607Z,19.50
2017-07-20T20:54:56.061Z,19.50
2017-07-20T20:57:23.650Z,19.60
2017-07-20T20:59:51.148Z,19.60
2017-07-20T21:02:18.620Z,19.50
2017-07-20T21:04:46.385Z,19.30
2017-07-20T21:07:15.077Z,19.00
2017-07-20T21:09:42.534Z,18.90
2017-07-20T21:12:10.010Z,18.90
2017-07-20T21:14:37.491Z,19.00
2017-07-20T21:17:04.968Z,19.00
2017-07-20T21:19:32.467Z,19.10
2017-07-20T21:21:59.935Z,19.00
2017-07-20T21:24:27.386Z,19.00
2017-07-20T21:26:54.883Z,19.00
2017-07-20T21:29:22.345Z,19.00
2017-07-20T21:31:49.811Z,18.90
2017-07-20T21:34:17.287Z,18.90
2017-07-20T21:36:44.739Z,19.00
2017-07-20T21:39:12.203Z,18.90
2017-07-20T21:41:39.690Z,19.00
2017-07-20T21:44:07.156Z,19.00
2017-07-20T21:46:34.610Z,19.00
2017-07-20T21:49:02.103Z,19.00
2017-07-20T21:51:29.559Z,18.90
2017-07-20T21:53:57.352Z,18.90
2017-07-20T21:56:24.830Z,18.80
2017-07-20T21:58:52.287Z,18.70
2017-07-20T22:01:19.752Z,18.70
2017-07-20T22:03:47.251Z,18.70
2017-07-20T22:06:14.707Z,18.70
2017-07-20T22:08:42.176Z,18.70
2017-07-20T22:11:10.324Z,18.70
2017-07-20T22:13:37.779Z,18.70
2017-07-20T22:16:05.239Z,18.80
2017-07-20T22:18:32.736Z,18.70
2017-07-20T22:21:00.302Z,18.70
2017-07-20T22:23:27.747Z,18.70
2017-07-20T22:25:55.322Z,18.60
2017-07-20T22:28:22.791Z,18.60
2017-07-20T22:30:50.255Z,18.60
2017-07-20T22:33:17.747Z,18.50
2017-07-20T22:35:45.608Z,18.50
2017-07-20T22:38:13.455Z,18.50
2017-07-20T22:40:41.110Z,18.50
2017-07-20T22:43:08.577Z,18.40
2017-07-20T22:45:36.031Z,18.50
2017-07-20T22:48:03.610Z,18.40
2017-07-20T22:50:31.471Z,18.30
2017-07-20T22:52:58.932Z,18.30
2017-07-20T22:55:26.423Z,18.30
2017-07-20T22:57:53.882Z,18.30
2017-07-20T23:00:21.339Z,18.30
2017-07-20T23:02:48.836Z,18.20
2017-07-20T23:05:16.691Z,18.20
2017-07-20T23:07:44.162Z,18.10
2017-07-20T23:10:11.632Z,18.10
2017-07-20T23:12:39.095Z,18.10
2017-07-20T23:15:06.566Z,18.00
2017-07-20T23:17:34.149Z,18.00
2017-07-20T23:20:01.616Z,17.90
2017-07-20T23:22:29.079Z,17.90
2017-07-20T23:24:56.656Z,17.90
2017-07-20T23:27:24.519Z,17.80
2017-07-20T23:29:52.366Z,17.70
2017-07-20T23:32:19.866Z,17.70
2017-07-20T23:34:47.439Z,17.70
2017-07-20T23:37:14.892Z,17.70
2017-07-20T23:39:42.371Z,17.70
2017-07-20T23:42:09.830Z,17.70
2017-07-20T23:44:37.286Z,17.70
2017-07-20T23:47:05.586Z,17.70
2017-07-20T23:49:33.448Z,17.70
2017-07-20T23:52:01.312Z,17.60
2017-07-20T23:54:28.882Z,17.60
2017-07-20T23:56:56.342Z,17.60
2017-07-20T23:59:23.798Z,17.60
